sensor_id;sensor_type;location;lat;lon;timestamp;P1;durP1;ratioP1;P2;durP2;ratioP2
40541;SDS011;49288;52.194;5.676;2022-11-20T00:04:26;16.13;;;6.30;;
40541;SDS011;49288;52.194;5.676;2022-11-20T00:09:28;16.05;;;6.32;;
40541;SDS011;49288;52.194;5.676;2022-11-20T00:14:31;14.52;;;5.90;;
40541;SDS011;49288;52.194;5.676;2022-11-20T00:19:35;17.45;;;6.68;;
40541;SDS011;49288;52.194;5.676;2022-11-20T00:24:38;12.27;;;5.40;;
40541;SDS011;49288;52.194;5.676;2022-11-20T00:29:44;15.27;;;6.82;;
40541;SDS011;49288;52.194;5.676;2022-11-20T00:34:47;17.75;;;6.78;;
40541;SDS011;49288;52.194;5.676;2022-11-20T00:39:50;10.98;;;5.18;;
40541;SDS011;49288;52.194;5.676;2022-11-20T00:44:53;13.80;;;6.55;;
40541;SDS011;49288;52.194;5.676;2022-11-20T00:49:56;20.23;;;7.50;;
40541;SDS011;49288;52.194;5.676;2022-11-20T00:54:59;17.00;;;6.80;;
40541;SDS011;49288;52.194;5.676;2022-11-20T01:00:02;18.30;;;6.22;;
40541;SDS011;49288;52.194;5.676;2022-11-20T01:05:05;17.25;;;6.90;;
40541;SDS011;49288;52.194;5.676;2022-11-20T01:10:08;16.48;;;5.93;;
40541;SDS011;49288;52.194;5.676;2022-11-20T01:15:11;21.55;;;8.20;;
40541;SDS011;49288;52.194;5.676;2022-11-20T01:20:14;20.00;;;7.05;;
40541;SDS011;49288;52.194;5.676;2022-11-20T01:25:17;18.77;;;5.60;;
40541;SDS011;49288;52.194;5.676;2022-11-20T01:30:19;18.48;;;8.02;;
40541;SDS011;49288;52.194;5.676;2022-11-20T01:35:22;19.20;;;6.70;;
40541;SDS011;49288;52.194;5.676;2022-11-20T01:40:25;12.45;;;5.55;;
40541;SDS011;49288;52.194;5.676;2022-11-20T01:50:51;12.43;;;4.43;;
40541;SDS011;49288;52.194;5.676;2022-11-20T01:55:56;13.98;;;6.40;;
40541;SDS011;49288;52.194;5.676;2022-11-20T02:01:00;11.88;;;5.40;;
40541;SDS011;49288;52.194;5.676;2022-11-20T02:06:23;13.70;;;5.85;;
40541;SDS011;49288;52.194;5.676;2022-11-20T02:11:26;10.45;;;4.97;;
40541;SDS011;49288;52.194;5.676;2022-11-20T02:16:31;15.05;;;6.45;;
40541;SDS011;49288;52.194;5.676;2022-11-20T02:27:22;14.85;;;6.40;;
40541;SDS011;49288;52.194;5.676;2022-11-20T02:32:05;17.50;;;7.32;;
40541;SDS011;49288;52.194;5.676;2022-11-20T02:37:08;10.77;;;4.95;;
40541;SDS011;49288;52.194;5.676;2022-11-20T02:42:11;12.95;;;6.05;;
40541;SDS011;49288;52.194;5.676;2022-11-20T02:47:14;10.43;;;5.25;;
40541;SDS011;49288;52.194;5.676;2022-11-20T02:52:17;11.57;;;5.03;;
40541;SDS011;49288;52.194;5.676;2022-11-20T02:57:20;11.88;;;5.97;;
40541;SDS011;49288;52.194;5.676;2022-11-20T03:02:23;16.75;;;7.25;;
40541;SDS011;49288;52.194;5.676;2022-11-20T03:07:26;16.80;;;7.88;;
40541;SDS011;49288;52.194;5.676;2022-11-20T03:12:29;19.75;;;8.35;;
40541;SDS011;49288;52.194;5.676;2022-11-20T03:17:32;14.07;;;6.00;;
40541;SDS011;49288;52.194;5.676;2022-11-20T03:22:35;17.38;;;6.57;;
40541;SDS011;49288;52.194;5.676;2022-11-20T03:27:38;16.83;;;7.18;;
40541;SDS011;49288;52.194;5.676;2022-11-20T03:32:41;22.73;;;7.82;;
40541;SDS011;49288;52.194;5.676;2022-11-20T03:37:44;19.35;;;6.25;;
40541;SDS011;49288;52.194;5.676;2022-11-20T03:42:48;13.25;;;5.38;;
40541;SDS011;49288;52.194;5.676;2022-11-20T03:47:51;19.08;;;6.03;;
40541;SDS011;49288;52.194;5.676;2022-11-20T03:52:54;11.18;;;4.80;;
40541;SDS011;49288;52.194;5.676;2022-11-20T03:57:58;18.83;;;8.18;;
40541;SDS011;49288;52.194;5.676;2022-11-20T04:03:02;14.40;;;5.90;;
40541;SDS011;49288;52.194;5.676;2022-11-20T04:08:05;14.98;;;7.00;;
40541;SDS011;49288;52.194;5.676;2022-11-20T04:13:08;13.20;;;5.50;;
40541;SDS011;49288;52.194;5.676;2022-11-20T04:18:11;15.20;;;5.78;;
40541;SDS011;49288;52.194;5.676;2022-11-20T04:23:14;9.68;;;4.28;;
40541;SDS011;49288;52.194;5.676;2022-11-20T04:28:17;8.90;;;4.70;;
40541;SDS011;49288;52.194;5.676;2022-11-20T04:33:20;13.90;;;6.50;;
40541;SDS011;49288;52.194;5.676;2022-11-20T04:38:23;14.68;;;6.75;;
40541;SDS011;49288;52.194;5.676;2022-11-20T04:43:27;13.85;;;5.43;;
40541;SDS011;49288;52.194;5.676;2022-11-20T04:48:30;10.57;;;4.38;;
40541;SDS011;49288;52.194;5.676;2022-11-20T04:53:33;11.45;;;5.68;;
40541;SDS011;49288;52.194;5.676;2022-11-20T04:58:36;31.13;;;7.68;;
40541;SDS011;49288;52.194;5.676;2022-11-20T05:03:39;12.68;;;6.20;;
40541;SDS011;49288;52.194;5.676;2022-11-20T05:08:43;9.32;;;4.15;;
40541;SDS011;49288;52.194;5.676;2022-11-20T05:13:49;20.85;;;7.93;;
40541;SDS011;49288;52.194;5.676;2022-11-20T05:18:53;27.08;;;9.70;;
40541;SDS011;49288;52.194;5.676;2022-11-20T05:23:56;11.02;;;4.50;;
40541;SDS011;49288;52.194;5.676;2022-11-20T05:28:59;10.13;;;4.57;;
40541;SDS011;49288;52.194;5.676;2022-11-20T05:34:02;20.05;;;6.95;;
40541;SDS011;49288;52.194;5.676;2022-11-20T05:39:05;11.40;;;5.00;;
40541;SDS011;49288;52.194;5.676;2022-11-20T05:44:10;10.88;;;4.28;;
40541;SDS011;49288;52.194;5.676;2022-11-20T05:49:13;10.70;;;5.32;;
40541;SDS011;49288;52.194;5.676;2022-11-20T05:54:16;14.43;;;5.05;;
40541;SDS011;49288;52.194;5.676;2022-11-20T05:59:19;12.43;;;6.03;;
40541;SDS011;49288;52.194;5.676;2022-11-20T06:04:22;13.25;;;5.38;;
40541;SDS011;49288;52.194;5.676;2022-11-20T06:09:25;27.75;;;7.57;;
40541;SDS011;49288;52.194;5.676;2022-11-20T06:14:29;7.07;;;3.75;;
40541;SDS011;49288;52.194;5.676;2022-11-20T06:19:32;13.02;;;6.75;;
40541;SDS011;49288;52.194;5.676;2022-11-20T06:24:35;12.88;;;5.32;;
40541;SDS011;49288;52.194;5.676;2022-11-20T06:29:38;12.25;;;6.13;;
40541;SDS011;49288;52.194;5.676;2022-11-20T06:34:41;17.90;;;7.32;;
40541;SDS011;49288;52.194;5.676;2022-11-20T06:40:03;8.88;;;4.55;;
40541;SDS011;49288;52.194;5.676;2022-11-20T06:45:06;13.32;;;5.70;;
40541;SDS011;49288;52.194;5.676;2022-11-20T06:50:09;9.45;;;5.10;;
40541;SDS011;49288;52.194;5.676;2022-11-20T06:55:12;15.38;;;7.00;;
40541;SDS011;49288;52.194;5.676;2022-11-20T07:00:16;15.65;;;6.53;;
40541;SDS011;49288;52.194;5.676;2022-11-20T07:05:19;14.25;;;5.63;;
40541;SDS011;49288;52.194;5.676;2022-11-20T07:10:25;12.40;;;5.63;;
40541;SDS011;49288;52.194;5.676;2022-11-20T07:15:28;10.63;;;5.22;;
40541;SDS011;49288;52.194;5.676;2022-11-20T07:20:31;13.18;;;5.45;;
40541;SDS011;49288;52.194;5.676;2022-11-20T07:25:34;10.25;;;5.20;;
40541;SDS011;49288;52.194;5.676;2022-11-20T07:30:37;24.17;;;9.63;;
40541;SDS011;49288;52.194;5.676;2022-11-20T07:35:40;19.70;;;8.48;;
40541;SDS011;49288;52.194;5.676;2022-11-20T07:40:43;21.73;;;9.13;;
40541;SDS011;49288;52.194;5.676;2022-11-20T07:45:47;25.10;;;8.90;;
40541;SDS011;49288;52.194;5.676;2022-11-20T07:50:54;27.73;;;9.63;;
40541;SDS011;49288;52.194;5.676;2022-11-20T07:55:59;23.58;;;9.82;;
40541;SDS011;49288;52.194;5.676;2022-11-20T08:01:03;37.28;;;12.98;;
40541;SDS011;49288;52.194;5.676;2022-11-20T08:06:07;24.10;;;9.27;;
40541;SDS011;49288;52.194;5.676;2022-11-20T08:11:10;29.00;;;11.07;;
40541;SDS011;49288;52.194;5.676;2022-11-20T08:16:32;26.48;;;10.60;;
40541;SDS011;49288;52.194;5.676;2022-11-20T08:21:34;37.42;;;12.95;;
40541;SDS011;49288;52.194;5.676;2022-11-20T08:26:39;30.58;;;11.30;;
40541;SDS011;49288;52.194;5.676;2022-11-20T08:31:44;47.40;;;18.38;;
40541;SDS011;49288;52.194;5.676;2022-11-20T08:41:50;50.03;;;17.83;;
40541;SDS011;49288;52.194;5.676;2022-11-20T08:46:53;59.25;;;22.00;;
40541;SDS011;49288;52.194;5.676;2022-11-20T08:51:56;80.63;;;27.02;;
40541;SDS011;49288;52.194;5.676;2022-11-20T08:56:59;83.53;;;30.02;;
40541;SDS011;49288;52.194;5.676;2022-11-20T09:02:04;117.63;;;35.28;;
40541;SDS011;49288;52.194;5.676;2022-11-20T09:07:07;118.00;;;35.75;;
40541;SDS011;49288;52.194;5.676;2022-11-20T09:12:10;114.15;;;35.10;;
40541;SDS011;49288;52.194;5.676;2022-11-20T09:17:13;151.35;;;45.42;;
40541;SDS011;49288;52.194;5.676;2022-11-20T09:22:16;135.98;;;42.78;;
40541;SDS011;49288;52.194;5.676;2022-11-20T09:27:19;176.15;;;49.50;;
40541;SDS011;49288;52.194;5.676;2022-11-20T09:32:23;171.10;;;48.40;;
40541;SDS011;49288;52.194;5.676;2022-11-20T09:37:26;185.30;;;50.03;;
40541;SDS011;49288;52.194;5.676;2022-11-20T09:57:50;196.10;;;53.80;;
40541;SDS011;49288;52.194;5.676;2022-11-20T10:13:26;221.75;;;57.92;;
40541;SDS011;49288;52.194;5.676;2022-11-20T10:45:15;255.45;;;70.97;;
40541;SDS011;49288;52.194;5.676;2022-11-20T10:50:19;272.67;;;71.25;;
40541;SDS011;49288;52.194;5.676;2022-11-20T11:00:33;286.13;;;77.60;;
40541;SDS011;49288;52.194;5.676;2022-11-20T11:05:40;283.15;;;75.95;;
40541;SDS011;49288;52.194;5.676;2022-11-20T11:10:56;306.85;;;83.18;;
40541;SDS011;49288;52.194;5.676;2022-11-20T11:16:00;275.10;;;85.05;;
40541;SDS011;49288;52.194;5.676;2022-11-20T11:21:04;266.45;;;74.18;;
40541;SDS011;49288;52.194;5.676;2022-11-20T11:26:21;233.65;;;66.93;;
40541;SDS011;49288;52.194;5.676;2022-11-20T11:31:25;278.55;;;78.65;;
40541;SDS011;49288;52.194;5.676;2022-11-20T11:36:29;299.07;;;82.63;;
40541;SDS011;49288;52.194;5.676;2022-11-20T11:41:32;304.50;;;84.75;;
40541;SDS011;49288;52.194;5.676;2022-11-20T11:46:41;295.45;;;73.13;;
40541;SDS011;49288;52.194;5.676;2022-11-20T11:57:09;301.23;;;87.32;;
40541;SDS011;49288;52.194;5.676;2022-11-20T12:02:24;243.95;;;59.65;;
40541;SDS011;49288;52.194;5.676;2022-11-20T12:13:01;277.65;;;75.10;;
40541;SDS011;49288;52.194;5.676;2022-11-20T12:18:09;261.10;;;70.75;;
40541;SDS011;49288;52.194;5.676;2022-11-20T12:23:39;248.85;;;71.55;;
40541;SDS011;49288;52.194;5.676;2022-11-20T12:44:07;244.35;;;60.95;;
40541;SDS011;49288;52.194;5.676;2022-11-20T12:49:55;139.88;;;37.85;;
40541;SDS011;49288;52.194;5.676;2022-11-20T13:00:15;202.73;;;56.80;;
40541;SDS011;49288;52.194;5.676;2022-11-20T13:05:21;202.10;;;54.05;;
40541;SDS011;49288;52.194;5.676;2022-11-20T13:15:57;190.57;;;57.72;;
40541;SDS011;49288;52.194;5.676;2022-11-20T13:21:21;200.30;;;59.28;;
40541;SDS011;49288;52.194;5.676;2022-11-20T13:26:45;169.33;;;46.03;;
40541;SDS011;49288;52.194;5.676;2022-11-20T13:31:48;155.88;;;47.17;;
40541;SDS011;49288;52.194;5.676;2022-11-20T13:36:56;105.88;;;32.95;;
40541;SDS011;49288;52.194;5.676;2022-11-20T13:42:00;157.38;;;44.88;;
40541;SDS011;49288;52.194;5.676;2022-11-20T13:47:23;160.52;;;47.40;;
40541;SDS011;49288;52.194;5.676;2022-11-20T13:57:59;136.90;;;40.97;;
40541;SDS011;49288;52.194;5.676;2022-11-20T14:03:09;163.73;;;45.92;;
40541;SDS011;49288;52.194;5.676;2022-11-20T14:08:19;174.15;;;50.88;;
40541;SDS011;49288;52.194;5.676;2022-11-20T14:13:24;157.50;;;49.33;;
40541;SDS011;49288;52.194;5.676;2022-11-20T14:18:27;157.05;;;45.10;;
40541;SDS011;49288;52.194;5.676;2022-11-20T14:23:30;167.77;;;50.05;;
40541;SDS011;49288;52.194;5.676;2022-11-20T14:28:34;161.17;;;48.63;;
40541;SDS011;49288;52.194;5.676;2022-11-20T14:33:39;170.40;;;50.92;;
40541;SDS011;49288;52.194;5.676;2022-11-20T14:38:42;170.13;;;50.63;;
40541;SDS011;49288;52.194;5.676;2022-11-20T14:43:46;167.30;;;49.65;;
40541;SDS011;49288;52.194;5.676;2022-11-20T14:48:51;168.13;;;51.25;;
40541;SDS011;49288;52.194;5.676;2022-11-20T14:59:22;167.68;;;47.05;;
40541;SDS011;49288;52.194;5.676;2022-11-20T15:04:28;168.82;;;49.35;;
40541;SDS011;49288;52.194;5.676;2022-11-20T15:09:31;148.75;;;49.95;;
40541;SDS011;49288;52.194;5.676;2022-11-20T15:14:34;157.27;;;50.65;;
40541;SDS011;49288;52.194;5.676;2022-11-20T15:19:39;146.65;;;46.72;;
40541;SDS011;49288;52.194;5.676;2022-11-20T15:24:42;143.73;;;45.20;;
40541;SDS011;49288;52.194;5.676;2022-11-20T15:29:45;110.00;;;34.20;;
40541;SDS011;49288;52.194;5.676;2022-11-20T15:34:48;163.63;;;50.33;;
40541;SDS011;49288;52.194;5.676;2022-11-20T15:39:52;167.45;;;49.10;;
40541;SDS011;49288;52.194;5.676;2022-11-20T15:44:55;135.32;;;42.03;;
40541;SDS011;49288;52.194;5.676;2022-11-20T15:49:59;165.43;;;55.40;;
40541;SDS011;49288;52.194;5.676;2022-11-20T15:55:04;140.50;;;43.90;;
40541;SDS011;49288;52.194;5.676;2022-11-20T16:00:11;144.55;;;49.47;;
40541;SDS011;49288;52.194;5.676;2022-11-20T16:05:25;129.25;;;43.17;;
40541;SDS011;49288;52.194;5.676;2022-11-20T16:15:52;177.32;;;57.33;;
40541;SDS011;49288;52.194;5.676;2022-11-20T16:20:58;126.50;;;41.65;;
40541;SDS011;49288;52.194;5.676;2022-11-20T16:26:08;206.80;;;62.53;;
40541;SDS011;49288;52.194;5.676;2022-11-20T16:31:12;170.57;;;50.63;;
40541;SDS011;49288;52.194;5.676;2022-11-20T16:36:15;196.63;;;59.17;;
40541;SDS011;49288;52.194;5.676;2022-11-20T16:41:19;209.80;;;64.30;;
40541;SDS011;49288;52.194;5.676;2022-11-20T16:46:40;199.60;;;61.55;;
40541;SDS011;49288;52.194;5.676;2022-11-20T16:51:43;215.88;;;61.78;;
40541;SDS011;49288;52.194;5.676;2022-11-20T16:56:47;249.68;;;75.40;;
40541;SDS011;49288;52.194;5.676;2022-11-20T17:01:51;228.13;;;66.68;;
40541;SDS011;49288;52.194;5.676;2022-11-20T17:06:55;226.45;;;61.88;;
40541;SDS011;49288;52.194;5.676;2022-11-20T17:11:57;246.50;;;70.15;;
40541;SDS011;49288;52.194;5.676;2022-11-20T17:17:00;257.52;;;71.95;;
40541;SDS011;49288;52.194;5.676;2022-11-20T17:22:05;217.63;;;59.30;;
40541;SDS011;49288;52.194;5.676;2022-11-20T17:27:08;212.73;;;57.88;;
40541;SDS011;49288;52.194;5.676;2022-11-20T17:32:11;233.45;;;60.78;;
40541;SDS011;49288;52.194;5.676;2022-11-20T17:37:15;211.25;;;60.03;;
40541;SDS011;49288;52.194;5.676;2022-11-20T17:42:18;236.88;;;66.20;;
40541;SDS011;49288;52.194;5.676;2022-11-20T17:47:30;203.18;;;58.25;;
40541;SDS011;49288;52.194;5.676;2022-11-20T17:52:34;227.33;;;61.23;;
40541;SDS011;49288;52.194;5.676;2022-11-20T17:57:37;233.80;;;58.83;;
40541;SDS011;49288;52.194;5.676;2022-11-20T18:02:58;223.40;;;60.17;;
40541;SDS011;49288;52.194;5.676;2022-11-20T18:08:02;274.00;;;71.28;;
40541;SDS011;49288;52.194;5.676;2022-11-20T18:13:06;106.07;;;29.10;;
40541;SDS011;49288;52.194;5.676;2022-11-20T18:18:09;245.50;;;64.95;;
40541;SDS011;49288;52.194;5.676;2022-11-20T18:23:12;172.45;;;44.40;;
40541;SDS011;49288;52.194;5.676;2022-11-20T18:28:15;263.90;;;68.05;;
40541;SDS011;49288;52.194;5.676;2022-11-20T18:33:20;220.32;;;54.15;;
40541;SDS011;49288;52.194;5.676;2022-11-20T18:38:29;225.38;;;57.95;;
40541;SDS011;49288;52.194;5.676;2022-11-20T18:43:32;250.30;;;60.50;;
40541;SDS011;49288;52.194;5.676;2022-11-20T18:48:54;187.10;;;49.08;;
40541;SDS011;49288;52.194;5.676;2022-11-20T18:53:57;210.20;;;50.95;;
40541;SDS011;49288;52.194;5.676;2022-11-20T18:59:01;195.13;;;49.20;;
40541;SDS011;49288;52.194;5.676;2022-11-20T19:04:08;199.40;;;49.17;;
40541;SDS011;49288;52.194;5.676;2022-11-20T19:09:11;186.23;;;49.28;;
40541;SDS011;49288;52.194;5.676;2022-11-20T19:14:15;180.75;;;44.90;;
40541;SDS011;49288;52.194;5.676;2022-11-20T19:19:17;174.95;;;47.05;;
40541;SDS011;49288;52.194;5.676;2022-11-20T19:24:20;156.65;;;43.35;;
40541;SDS011;49288;52.194;5.676;2022-11-20T19:29:25;167.38;;;45.22;;
40541;SDS011;49288;52.194;5.676;2022-11-20T19:34:29;162.43;;;45.07;;
40541;SDS011;49288;52.194;5.676;2022-11-20T19:39:32;181.02;;;48.03;;
40541;SDS011;49288;52.194;5.676;2022-11-20T19:44:37;175.38;;;46.45;;
40541;SDS011;49288;52.194;5.676;2022-11-20T19:49:39;173.13;;;47.55;;
40541;SDS011;49288;52.194;5.676;2022-11-20T19:54:42;168.00;;;46.55;;
40541;SDS011;49288;52.194;5.676;2022-11-20T19:59:45;175.68;;;45.70;;
40541;SDS011;49288;52.194;5.676;2022-11-20T20:04:49;171.50;;;44.47;;
40541;SDS011;49288;52.194;5.676;2022-11-20T20:09:52;144.00;;;40.15;;
40541;SDS011;49288;52.194;5.676;2022-11-20T20:14:55;168.68;;;48.25;;
40541;SDS011;49288;52.194;5.676;2022-11-20T20:20:00;169.77;;;48.78;;
40541;SDS011;49288;52.194;5.676;2022-11-20T20:25:03;168.60;;;46.90;;
40541;SDS011;49288;52.194;5.676;2022-11-20T20:30:06;162.20;;;46.50;;
40541;SDS011;49288;52.194;5.676;2022-11-20T20:35:12;173.13;;;49.40;;
40541;SDS011;49288;52.194;5.676;2022-11-20T20:40:15;142.13;;;43.60;;
40541;SDS011;49288;52.194;5.676;2022-11-20T20:45:19;153.85;;;47.38;;
40541;SDS011;49288;52.194;5.676;2022-11-20T20:50:23;149.45;;;45.30;;
40541;SDS011;49288;52.194;5.676;2022-11-20T20:55:25;145.10;;;45.35;;
40541;SDS011;49288;52.194;5.676;2022-11-20T21:00:28;150.30;;;46.83;;
40541;SDS011;49288;52.194;5.676;2022-11-20T21:05:31;149.27;;;44.65;;
40541;SDS011;49288;52.194;5.676;2022-11-20T21:10:34;167.57;;;48.95;;
40541;SDS011;49288;52.194;5.676;2022-11-20T21:15:38;148.00;;;45.90;;
40541;SDS011;49288;52.194;5.676;2022-11-20T21:20:42;136.98;;;44.83;;
40541;SDS011;49288;52.194;5.676;2022-11-20T21:26:05;126.30;;;41.70;;
40541;SDS011;49288;52.194;5.676;2022-11-20T21:31:10;136.88;;;43.00;;
40541;SDS011;49288;52.194;5.676;2022-11-20T21:36:14;136.65;;;41.05;;
40541;SDS011;49288;52.194;5.676;2022-11-20T21:41:17;140.30;;;41.90;;
40541;SDS011;49288;52.194;5.676;2022-11-20T21:46:20;116.18;;;38.42;;
40541;SDS011;49288;52.194;5.676;2022-11-20T21:51:25;93.72;;;33.00;;
40541;SDS011;49288;52.194;5.676;2022-11-20T21:56:28;110.10;;;36.40;;
40541;SDS011;49288;52.194;5.676;2022-11-20T22:01:31;114.30;;;38.33;;
40541;SDS011;49288;52.194;5.676;2022-11-20T22:06:37;118.25;;;36.33;;
40541;SDS011;49288;52.194;5.676;2022-11-20T22:11:40;84.60;;;29.88;;
40541;SDS011;49288;52.194;5.676;2022-11-20T22:17:02;69.70;;;26.25;;
40541;SDS011;49288;52.194;5.676;2022-11-20T22:22:05;109.22;;;35.75;;
40541;SDS011;49288;52.194;5.676;2022-11-20T22:27:09;84.55;;;30.88;;
40541;SDS011;49288;52.194;5.676;2022-11-20T22:32:12;76.82;;;27.45;;
40541;SDS011;49288;52.194;5.676;2022-11-20T22:37:15;80.90;;;29.80;;
40541;SDS011;49288;52.194;5.676;2022-11-20T22:42:18;64.35;;;23.85;;
40541;SDS011;49288;52.194;5.676;2022-11-20T22:47:20;84.43;;;29.83;;
40541;SDS011;49288;52.194;5.676;2022-11-20T22:52:23;72.80;;;26.50;;
40541;SDS011;49288;52.194;5.676;2022-11-20T22:57:26;76.72;;;28.02;;
40541;SDS011;49288;52.194;5.676;2022-11-20T23:02:29;93.72;;;32.53;;
40541;SDS011;49288;52.194;5.676;2022-11-20T23:07:32;80.18;;;30.67;;
40541;SDS011;49288;52.194;5.676;2022-11-20T23:12:41;79.97;;;30.58;;
40541;SDS011;49288;52.194;5.676;2022-11-20T23:17:44;85.50;;;32.08;;
40541;SDS011;49288;52.194;5.676;2022-11-20T23:22:48;68.05;;;24.80;;
40541;SDS011;49288;52.194;5.676;2022-11-20T23:27:51;55.03;;;22.55;;
40541;SDS011;49288;52.194;5.676;2022-11-20T23:32:56;65.43;;;25.73;;
40541;SDS011;49288;52.194;5.676;2022-11-20T23:37:59;59.08;;;24.35;;
40541;SDS011;49288;52.194;5.676;2022-11-20T23:43:03;57.43;;;21.80;;
40541;SDS011;49288;52.194;5.676;2022-11-20T23:48:19;68.90;;;27.35;;
40541;SDS011;49288;52.194;5.676;2022-11-20T23:53:22;73.13;;;27.53;;
40541;SDS011;49288;52.194;5.676;2022-11-20T23:58:29;66.53;;;27.15;;
